sensor_id;sensor_type;location;lat;lon;timestamp;P1;durP1;ratioP1;P2;durP2;ratioP2
51566;SDS011;37657;53.182;5.638;2022-07-24T00:01:43;7.40;;;4.88;;
51566;SDS011;37657;53.182;5.638;2022-07-24T00:04:09;6.75;;;5.35;;
51566;SDS011;37657;53.182;5.638;2022-07-24T00:06:37;6.32;;;4.93;;
51566;SDS011;37657;53.182;5.638;2022-07-24T00:09:04;6.80;;;5.68;;
51566;SDS011;37657;53.182;5.638;2022-07-24T00:11:31;10.75;;;6.97;;
51566;SDS011;37657;53.182;5.638;2022-07-24T00:14:00;6.82;;;4.70;;
51566;SDS011;37657;53.182;5.638;2022-07-24T00:16:34;8.52;;;6.15;;
51566;SDS011;37657;53.182;5.638;2022-07-24T00:19:00;8.40;;;5.35;;
51566;SDS011;37657;53.182;5.638;2022-07-24T00:21:26;8.43;;;5.90;;
51566;SDS011;37657;53.182;5.638;2022-07-24T00:23:51;9.35;;;5.93;;
51566;SDS011;37657;53.182;5.638;2022-07-24T00:26:17;9.07;;;6.00;;
51566;SDS011;37657;53.182;5.638;2022-07-24T00:28:43;7.15;;;5.78;;
51566;SDS011;37657;53.182;5.638;2022-07-24T00:31:08;7.78;;;6.45;;
51566;SDS011;37657;53.182;5.638;2022-07-24T00:33:34;7.97;;;5.13;;
51566;SDS011;37657;53.182;5.638;2022-07-24T00:35:59;6.03;;;5.25;;
51566;SDS011;37657;53.182;5.638;2022-07-24T00:38:25;8.70;;;5.38;;
51566;SDS011;37657;53.182;5.638;2022-07-24T00:40:51;5.72;;;4.90;;
51566;SDS011;37657;53.182;5.638;2022-07-24T00:43:16;8.57;;;5.70;;
51566;SDS011;37657;53.182;5.638;2022-07-24T00:45:42;8.25;;;5.68;;
51566;SDS011;37657;53.182;5.638;2022-07-24T00:48:09;8.75;;;5.38;;
51566;SDS011;37657;53.182;5.638;2022-07-24T00:50:36;7.93;;;5.95;;
51566;SDS011;37657;53.182;5.638;2022-07-24T00:53:02;7.70;;;6.53;;
51566;SDS011;37657;53.182;5.638;2022-07-24T00:55:28;7.80;;;6.10;;
51566;SDS011;37657;53.182;5.638;2022-07-24T00:57:53;9.25;;;6.35;;
51566;SDS011;37657;53.182;5.638;2022-07-24T01:00:20;7.95;;;6.90;;
51566;SDS011;37657;53.182;5.638;2022-07-24T01:02:46;7.68;;;6.32;;
51566;SDS011;37657;53.182;5.638;2022-07-24T01:05:13;8.13;;;5.82;;
51566;SDS011;37657;53.182;5.638;2022-07-24T01:07:39;10.63;;;5.43;;
51566;SDS011;37657;53.182;5.638;2022-07-24T01:10:05;9.75;;;7.13;;
51566;SDS011;37657;53.182;5.638;2022-07-24T01:12:32;10.43;;;8.80;;
51566;SDS011;37657;53.182;5.638;2022-07-24T01:14:59;8.27;;;7.13;;
51566;SDS011;37657;53.182;5.638;2022-07-24T01:17:31;7.75;;;6.45;;
51566;SDS011;37657;53.182;5.638;2022-07-24T01:19:58;8.02;;;5.25;;
51566;SDS011;37657;53.182;5.638;2022-07-24T01:22:24;9.27;;;6.78;;
51566;SDS011;37657;53.182;5.638;2022-07-24T01:24:51;9.07;;;6.93;;
51566;SDS011;37657;53.182;5.638;2022-07-24T01:27:17;8.40;;;7.50;;
51566;SDS011;37657;53.182;5.638;2022-07-24T01:29:44;9.50;;;5.78;;
51566;SDS011;37657;53.182;5.638;2022-07-24T01:32:09;7.65;;;6.85;;
51566;SDS011;37657;53.182;5.638;2022-07-24T01:34:35;6.97;;;5.93;;
51566;SDS011;37657;53.182;5.638;2022-07-24T01:37:01;9.57;;;7.18;;
51566;SDS011;37657;53.182;5.638;2022-07-24T01:39:27;11.30;;;6.53;;
51566;SDS011;37657;53.182;5.638;2022-07-24T01:41:53;14.35;;;7.93;;
51566;SDS011;37657;53.182;5.638;2022-07-24T01:44:19;10.63;;;8.85;;
51566;SDS011;37657;53.182;5.638;2022-07-24T01:46:45;9.80;;;6.25;;
51566;SDS011;37657;53.182;5.638;2022-07-24T01:49:10;7.10;;;6.20;;
51566;SDS011;37657;53.182;5.638;2022-07-24T01:51:36;10.20;;;6.90;;
51566;SDS011;37657;53.182;5.638;2022-07-24T01:54:02;10.88;;;7.85;;
51566;SDS011;37657;53.182;5.638;2022-07-24T01:56:28;9.05;;;6.65;;
51566;SDS011;37657;53.182;5.638;2022-07-24T01:58:55;11.20;;;8.68;;
51566;SDS011;37657;53.182;5.638;2022-07-24T02:01:20;10.27;;;8.27;;
51566;SDS011;37657;53.182;5.638;2022-07-24T02:03:46;9.15;;;6.80;;
51566;SDS011;37657;53.182;5.638;2022-07-24T02:06:11;9.52;;;7.00;;
51566;SDS011;37657;53.182;5.638;2022-07-24T02:08:37;10.63;;;8.68;;
51566;SDS011;37657;53.182;5.638;2022-07-24T02:11:03;8.07;;;7.10;;
51566;SDS011;37657;53.182;5.638;2022-07-24T02:13:29;10.75;;;7.43;;
51566;SDS011;37657;53.182;5.638;2022-07-24T02:15:54;9.00;;;7.22;;
51566;SDS011;37657;53.182;5.638;2022-07-24T02:18:20;8.48;;;6.78;;
51566;SDS011;37657;53.182;5.638;2022-07-24T02:20:45;9.30;;;7.70;;
51566;SDS011;37657;53.182;5.638;2022-07-24T02:23:11;9.38;;;8.27;;
51566;SDS011;37657;53.182;5.638;2022-07-24T02:25:42;11.40;;;7.70;;
51566;SDS011;37657;53.182;5.638;2022-07-24T02:28:11;9.98;;;7.38;;
51566;SDS011;37657;53.182;5.638;2022-07-24T02:30:37;7.85;;;6.30;;
51566;SDS011;37657;53.182;5.638;2022-07-24T02:33:03;9.50;;;7.50;;
51566;SDS011;37657;53.182;5.638;2022-07-24T02:35:29;10.05;;;7.13;;
51566;SDS011;37657;53.182;5.638;2022-07-24T02:37:54;7.68;;;6.88;;
51566;SDS011;37657;53.182;5.638;2022-07-24T02:40:20;11.63;;;7.45;;
51566;SDS011;37657;53.182;5.638;2022-07-24T02:42:48;9.35;;;7.95;;
51566;SDS011;37657;53.182;5.638;2022-07-24T02:45:13;7.85;;;7.10;;
51566;SDS011;37657;53.182;5.638;2022-07-24T02:47:49;10.80;;;7.63;;
51566;SDS011;37657;53.182;5.638;2022-07-24T02:50:17;13.55;;;9.73;;
51566;SDS011;37657;53.182;5.638;2022-07-24T02:52:43;9.13;;;8.10;;
51566;SDS011;37657;53.182;5.638;2022-07-24T02:55:08;10.70;;;7.32;;
51566;SDS011;37657;53.182;5.638;2022-07-24T02:57:34;12.10;;;8.63;;
51566;SDS011;37657;53.182;5.638;2022-07-24T03:00:01;16.67;;;8.45;;
51566;SDS011;37657;53.182;5.638;2022-07-24T03:02:28;9.48;;;7.53;;
51566;SDS011;37657;53.182;5.638;2022-07-24T03:04:54;12.57;;;7.97;;
51566;SDS011;37657;53.182;5.638;2022-07-24T03:07:22;6.70;;;5.55;;
51566;SDS011;37657;53.182;5.638;2022-07-24T03:09:47;8.18;;;6.13;;
51566;SDS011;37657;53.182;5.638;2022-07-24T03:12:13;8.27;;;6.65;;
51566;SDS011;37657;53.182;5.638;2022-07-24T03:14:38;7.18;;;6.03;;
51566;SDS011;37657;53.182;5.638;2022-07-24T03:17:04;9.65;;;7.43;;
51566;SDS011;37657;53.182;5.638;2022-07-24T03:19:30;10.27;;;6.85;;
51566;SDS011;37657;53.182;5.638;2022-07-24T03:21:55;9.75;;;6.03;;
51566;SDS011;37657;53.182;5.638;2022-07-24T03:24:21;11.68;;;7.20;;
51566;SDS011;37657;53.182;5.638;2022-07-24T03:26:46;9.18;;;6.90;;
51566;SDS011;37657;53.182;5.638;2022-07-24T03:29:12;8.23;;;6.93;;
51566;SDS011;37657;53.182;5.638;2022-07-24T03:31:37;10.57;;;7.82;;
51566;SDS011;37657;53.182;5.638;2022-07-24T03:34:03;7.47;;;6.45;;
51566;SDS011;37657;53.182;5.638;2022-07-24T03:36:29;9.10;;;7.47;;
51566;SDS011;37657;53.182;5.638;2022-07-24T03:38:54;12.00;;;7.30;;
51566;SDS011;37657;53.182;5.638;2022-07-24T03:41:20;9.50;;;7.47;;
51566;SDS011;37657;53.182;5.638;2022-07-24T03:43:45;9.10;;;6.60;;
51566;SDS011;37657;53.182;5.638;2022-07-24T03:46:11;11.18;;;7.53;;
51566;SDS011;37657;53.182;5.638;2022-07-24T03:48:36;9.52;;;7.10;;
51566;SDS011;37657;53.182;5.638;2022-07-24T03:51:02;10.15;;;8.18;;
51566;SDS011;37657;53.182;5.638;2022-07-24T03:53:27;8.98;;;6.65;;
51566;SDS011;37657;53.182;5.638;2022-07-24T03:55:53;7.15;;;6.18;;
51566;SDS011;37657;53.182;5.638;2022-07-24T03:58:19;7.78;;;6.03;;
51566;SDS011;37657;53.182;5.638;2022-07-24T04:00:44;10.82;;;7.03;;
51566;SDS011;37657;53.182;5.638;2022-07-24T04:03:10;9.50;;;6.68;;
51566;SDS011;37657;53.182;5.638;2022-07-24T04:05:35;7.95;;;6.68;;
51566;SDS011;37657;53.182;5.638;2022-07-24T04:08:01;8.95;;;7.18;;
51566;SDS011;37657;53.182;5.638;2022-07-24T04:10:26;10.38;;;7.50;;
51566;SDS011;37657;53.182;5.638;2022-07-24T04:12:52;9.57;;;7.43;;
51566;SDS011;37657;53.182;5.638;2022-07-24T04:15:17;12.18;;;8.32;;
51566;SDS011;37657;53.182;5.638;2022-07-24T04:17:43;9.43;;;6.72;;
51566;SDS011;37657;53.182;5.638;2022-07-24T04:20:09;9.60;;;6.35;;
51566;SDS011;37657;53.182;5.638;2022-07-24T04:22:36;11.13;;;6.53;;
51566;SDS011;37657;53.182;5.638;2022-07-24T04:25:01;13.80;;;8.80;;
51566;SDS011;37657;53.182;5.638;2022-07-24T04:27:28;9.07;;;7.57;;
51566;SDS011;37657;53.182;5.638;2022-07-24T04:29:53;8.27;;;7.35;;
51566;SDS011;37657;53.182;5.638;2022-07-24T04:32:19;9.05;;;6.38;;
51566;SDS011;37657;53.182;5.638;2022-07-24T04:34:44;9.45;;;7.30;;
51566;SDS011;37657;53.182;5.638;2022-07-24T04:37:10;8.77;;;7.07;;
51566;SDS011;37657;53.182;5.638;2022-07-24T04:39:35;7.97;;;6.80;;
51566;SDS011;37657;53.182;5.638;2022-07-24T04:42:01;10.10;;;8.57;;
51566;SDS011;37657;53.182;5.638;2022-07-24T04:44:27;8.27;;;7.40;;
51566;SDS011;37657;53.182;5.638;2022-07-24T04:46:52;12.05;;;8.15;;
51566;SDS011;37657;53.182;5.638;2022-07-24T04:49:18;10.75;;;6.82;;
51566;SDS011;37657;53.182;5.638;2022-07-24T04:51:43;19.27;;;7.93;;
51566;SDS011;37657;53.182;5.638;2022-07-24T04:54:09;11.57;;;8.02;;
51566;SDS011;37657;53.182;5.638;2022-07-24T04:56:34;8.48;;;7.68;;
51566;SDS011;37657;53.182;5.638;2022-07-24T04:59:00;12.10;;;7.30;;
51566;SDS011;37657;53.182;5.638;2022-07-24T05:01:27;9.13;;;6.57;;
51566;SDS011;37657;53.182;5.638;2022-07-24T05:03:53;14.52;;;8.00;;
51566;SDS011;37657;53.182;5.638;2022-07-24T05:06:21;10.45;;;7.50;;
51566;SDS011;37657;53.182;5.638;2022-07-24T05:08:47;8.82;;;7.65;;
51566;SDS011;37657;53.182;5.638;2022-07-24T05:11:13;11.23;;;8.85;;
51566;SDS011;37657;53.182;5.638;2022-07-24T05:13:38;12.07;;;10.50;;
51566;SDS011;37657;53.182;5.638;2022-07-24T05:16:04;11.82;;;9.70;;
51566;SDS011;37657;53.182;5.638;2022-07-24T05:18:30;12.90;;;9.60;;
51566;SDS011;37657;53.182;5.638;2022-07-24T05:20:55;11.95;;;9.95;;
51566;SDS011;37657;53.182;5.638;2022-07-24T05:23:21;11.90;;;9.93;;
51566;SDS011;37657;53.182;5.638;2022-07-24T05:25:46;12.45;;;10.63;;
51566;SDS011;37657;53.182;5.638;2022-07-24T05:28:12;11.50;;;9.18;;
51566;SDS011;37657;53.182;5.638;2022-07-24T05:30:38;17.48;;;11.45;;
51566;SDS011;37657;53.182;5.638;2022-07-24T05:33:03;15.40;;;11.55;;
51566;SDS011;37657;53.182;5.638;2022-07-24T05:35:29;15.07;;;12.30;;
51566;SDS011;37657;53.182;5.638;2022-07-24T05:37:54;14.63;;;11.10;;
51566;SDS011;37657;53.182;5.638;2022-07-24T05:40:20;13.80;;;9.80;;
51566;SDS011;37657;53.182;5.638;2022-07-24T05:42:46;13.60;;;11.57;;
51566;SDS011;37657;53.182;5.638;2022-07-24T05:45:11;14.10;;;11.05;;
51566;SDS011;37657;53.182;5.638;2022-07-24T05:47:37;15.27;;;12.85;;
51566;SDS011;37657;53.182;5.638;2022-07-24T05:50:13;16.83;;;14.55;;
51566;SDS011;37657;53.182;5.638;2022-07-24T05:55:05;19.13;;;13.35;;
51566;SDS011;37657;53.182;5.638;2022-07-24T05:57:32;16.67;;;12.77;;
51566;SDS011;37657;53.182;5.638;2022-07-24T05:59:57;12.48;;;11.18;;
51566;SDS011;37657;53.182;5.638;2022-07-24T06:02:23;20.10;;;13.80;;
51566;SDS011;37657;53.182;5.638;2022-07-24T06:04:48;26.33;;;14.30;;
51566;SDS011;37657;53.182;5.638;2022-07-24T06:07:14;16.15;;;12.25;;
51566;SDS011;37657;53.182;5.638;2022-07-24T06:09:40;13.38;;;11.73;;
51566;SDS011;37657;53.182;5.638;2022-07-24T06:12:06;13.23;;;11.68;;
51566;SDS011;37657;53.182;5.638;2022-07-24T06:14:32;14.40;;;10.55;;
51566;SDS011;37657;53.182;5.638;2022-07-24T06:16:57;14.35;;;10.45;;
51566;SDS011;37657;53.182;5.638;2022-07-24T06:19:23;11.50;;;10.30;;
51566;SDS011;37657;53.182;5.638;2022-07-24T06:21:49;10.88;;;9.13;;
51566;SDS011;37657;53.182;5.638;2022-07-24T06:24:15;13.90;;;10.70;;
51566;SDS011;37657;53.182;5.638;2022-07-24T06:26:40;13.23;;;9.18;;
51566;SDS011;37657;53.182;5.638;2022-07-24T06:29:06;12.90;;;8.70;;
51566;SDS011;37657;53.182;5.638;2022-07-24T06:31:32;8.88;;;7.32;;
51566;SDS011;37657;53.182;5.638;2022-07-24T06:33:57;10.82;;;7.05;;
51566;SDS011;37657;53.182;5.638;2022-07-24T06:36:23;10.40;;;7.47;;
51566;SDS011;37657;53.182;5.638;2022-07-24T06:38:48;11.52;;;6.72;;
51566;SDS011;37657;53.182;5.638;2022-07-24T06:41:14;8.48;;;6.50;;
51566;SDS011;37657;53.182;5.638;2022-07-24T06:43:40;14.18;;;6.10;;
51566;SDS011;37657;53.182;5.638;2022-07-24T06:46:06;8.38;;;6.70;;
51566;SDS011;37657;53.182;5.638;2022-07-24T06:48:32;12.15;;;6.20;;
51566;SDS011;37657;53.182;5.638;2022-07-24T06:50:57;12.00;;;7.40;;
51566;SDS011;37657;53.182;5.638;2022-07-24T06:53:23;7.78;;;5.82;;
51566;SDS011;37657;53.182;5.638;2022-07-24T06:55:49;10.20;;;6.20;;
51566;SDS011;37657;53.182;5.638;2022-07-24T06:58:18;30.65;;;6.57;;
51566;SDS011;37657;53.182;5.638;2022-07-24T07:00:44;11.18;;;6.57;;
51566;SDS011;37657;53.182;5.638;2022-07-24T07:03:10;11.10;;;5.95;;
51566;SDS011;37657;53.182;5.638;2022-07-24T07:05:36;11.02;;;7.15;;
51566;SDS011;37657;53.182;5.638;2022-07-24T07:08:01;5.45;;;4.63;;
51566;SDS011;37657;53.182;5.638;2022-07-24T07:10:27;8.32;;;4.93;;
51566;SDS011;37657;53.182;5.638;2022-07-24T07:12:53;11.18;;;4.82;;
51566;SDS011;37657;53.182;5.638;2022-07-24T07:15:18;8.82;;;6.65;;
51566;SDS011;37657;53.182;5.638;2022-07-24T07:17:45;8.25;;;5.30;;
51566;SDS011;37657;53.182;5.638;2022-07-24T07:20:12;7.93;;;5.00;;
51566;SDS011;37657;53.182;5.638;2022-07-24T07:22:38;10.15;;;5.85;;
51566;SDS011;37657;53.182;5.638;2022-07-24T07:25:05;6.40;;;5.00;;
51566;SDS011;37657;53.182;5.638;2022-07-24T07:27:31;9.52;;;6.65;;
51566;SDS011;37657;53.182;5.638;2022-07-24T07:29:57;9.25;;;5.43;;
51566;SDS011;37657;53.182;5.638;2022-07-24T07:32:23;10.13;;;5.55;;
51566;SDS011;37657;53.182;5.638;2022-07-24T07:34:48;7.20;;;5.25;;
51566;SDS011;37657;53.182;5.638;2022-07-24T07:37:14;9.07;;;4.38;;
51566;SDS011;37657;53.182;5.638;2022-07-24T07:39:39;8.60;;;5.30;;
51566;SDS011;37657;53.182;5.638;2022-07-24T07:42:05;6.90;;;3.83;;
51566;SDS011;37657;53.182;5.638;2022-07-24T07:44:31;8.20;;;4.70;;
51566;SDS011;37657;53.182;5.638;2022-07-24T07:46:56;9.00;;;5.63;;
51566;SDS011;37657;53.182;5.638;2022-07-24T07:49:22;7.22;;;4.57;;
51566;SDS011;37657;53.182;5.638;2022-07-24T07:51:47;6.85;;;4.70;;
51566;SDS011;37657;53.182;5.638;2022-07-24T07:54:16;6.03;;;4.45;;
51566;SDS011;37657;53.182;5.638;2022-07-24T07:56:42;7.45;;;4.90;;
51566;SDS011;37657;53.182;5.638;2022-07-24T07:59:08;7.32;;;4.80;;
51566;SDS011;37657;53.182;5.638;2022-07-24T08:01:34;6.45;;;4.60;;
51566;SDS011;37657;53.182;5.638;2022-07-24T08:04:00;5.95;;;4.20;;
51566;SDS011;37657;53.182;5.638;2022-07-24T08:06:26;5.63;;;3.88;;
51566;SDS011;37657;53.182;5.638;2022-07-24T08:08:51;6.50;;;4.32;;
51566;SDS011;37657;53.182;5.638;2022-07-24T08:11:17;7.15;;;4.55;;
51566;SDS011;37657;53.182;5.638;2022-07-24T08:13:43;4.07;;;3.13;;
51566;SDS011;37657;53.182;5.638;2022-07-24T08:16:09;6.05;;;3.38;;
51566;SDS011;37657;53.182;5.638;2022-07-24T08:18:35;5.72;;;3.20;;
51566;SDS011;37657;53.182;5.638;2022-07-24T08:21:01;5.00;;;2.67;;
51566;SDS011;37657;53.182;5.638;2022-07-24T08:23:26;5.85;;;3.45;;
51566;SDS011;37657;53.182;5.638;2022-07-24T08:25:52;5.95;;;3.35;;
51566;SDS011;37657;53.182;5.638;2022-07-24T08:28:17;6.40;;;3.75;;
51566;SDS011;37657;53.182;5.638;2022-07-24T08:30:43;6.18;;;4.70;;
51566;SDS011;37657;53.182;5.638;2022-07-24T08:33:09;7.30;;;4.25;;
51566;SDS011;37657;53.182;5.638;2022-07-24T08:35:34;5.82;;;3.47;;
51566;SDS011;37657;53.182;5.638;2022-07-24T08:38:01;8.05;;;3.90;;
51566;SDS011;37657;53.182;5.638;2022-07-24T08:40:34;5.05;;;3.40;;
51566;SDS011;37657;53.182;5.638;2022-07-24T08:43:02;5.05;;;3.25;;
51566;SDS011;37657;53.182;5.638;2022-07-24T08:45:29;7.10;;;4.05;;
51566;SDS011;37657;53.182;5.638;2022-07-24T08:48:00;5.78;;;4.78;;
51566;SDS011;37657;53.182;5.638;2022-07-24T08:50:28;7.13;;;4.40;;
51566;SDS011;37657;53.182;5.638;2022-07-24T08:52:56;4.95;;;3.03;;
51566;SDS011;37657;53.182;5.638;2022-07-24T08:55:22;5.32;;;3.28;;
51566;SDS011;37657;53.182;5.638;2022-07-24T08:57:48;8.13;;;4.35;;
51566;SDS011;37657;53.182;5.638;2022-07-24T09:00:14;17.25;;;4.85;;
51566;SDS011;37657;53.182;5.638;2022-07-24T09:02:40;4.32;;;3.10;;
51566;SDS011;37657;53.182;5.638;2022-07-24T09:05:05;7.22;;;3.70;;
51566;SDS011;37657;53.182;5.638;2022-07-24T09:07:32;4.57;;;2.60;;
51566;SDS011;37657;53.182;5.638;2022-07-24T09:10:08;6.55;;;3.63;;
51566;SDS011;37657;53.182;5.638;2022-07-24T09:12:40;5.68;;;3.08;;
51566;SDS011;37657;53.182;5.638;2022-07-24T09:15:22;4.65;;;3.15;;
51566;SDS011;37657;53.182;5.638;2022-07-24T09:17:49;7.03;;;4.13;;
51566;SDS011;37657;53.182;5.638;2022-07-24T09:20:21;5.78;;;4.05;;
51566;SDS011;37657;53.182;5.638;2022-07-24T09:22:49;5.63;;;3.28;;
51566;SDS011;37657;53.182;5.638;2022-07-24T09:25:16;6.53;;;2.92;;
51566;SDS011;37657;53.182;5.638;2022-07-24T09:30:35;9.27;;;4.03;;
51566;SDS011;37657;53.182;5.638;2022-07-24T09:35:33;8.23;;;4.00;;
51566;SDS011;37657;53.182;5.638;2022-07-24T09:38:05;23.35;;;4.60;;
51566;SDS011;37657;53.182;5.638;2022-07-24T09:40:33;5.78;;;3.53;;
51566;SDS011;37657;53.182;5.638;2022-07-24T09:43:17;4.97;;;3.58;;
51566;SDS011;37657;53.182;5.638;2022-07-24T09:45:57;6.90;;;3.85;;
51566;SDS011;37657;53.182;5.638;2022-07-24T09:48:33;5.50;;;3.33;;
51566;SDS011;37657;53.182;5.638;2022-07-24T09:51:00;6.45;;;4.80;;
51566;SDS011;37657;53.182;5.638;2022-07-24T09:53:28;5.05;;;2.67;;
51566;SDS011;37657;53.182;5.638;2022-07-24T09:56:05;5.88;;;4.00;;
51566;SDS011;37657;53.182;5.638;2022-07-24T09:58:40;4.95;;;3.10;;
51566;SDS011;37657;53.182;5.638;2022-07-24T10:01:09;5.03;;;2.85;;
51566;SDS011;37657;53.182;5.638;2022-07-24T10:03:36;4.38;;;2.60;;
51566;SDS011;37657;53.182;5.638;2022-07-24T10:06:04;3.47;;;2.10;;
51566;SDS011;37657;53.182;5.638;2022-07-24T10:08:36;5.10;;;2.78;;
51566;SDS011;37657;53.182;5.638;2022-07-24T10:11:03;6.13;;;2.70;;
51566;SDS011;37657;53.182;5.638;2022-07-24T10:13:29;4.45;;;2.85;;
51566;SDS011;37657;53.182;5.638;2022-07-24T10:18:21;7.57;;;3.65;;
51566;SDS011;37657;53.182;5.638;2022-07-24T10:20:58;6.47;;;2.40;;
51566;SDS011;37657;53.182;5.638;2022-07-24T10:23:48;3.70;;;2.35;;
51566;SDS011;37657;53.182;5.638;2022-07-24T10:29:06;6.15;;;3.42;;
51566;SDS011;37657;53.182;5.638;2022-07-24T10:31:40;4.60;;;2.28;;
51566;SDS011;37657;53.182;5.638;2022-07-24T10:34:13;3.63;;;2.67;;
51566;SDS011;37657;53.182;5.638;2022-07-24T10:42:05;5.32;;;2.88;;
51566;SDS011;37657;53.182;5.638;2022-07-24T10:44:32;5.40;;;2.50;;
51566;SDS011;37657;53.182;5.638;2022-07-24T10:49:33;6.90;;;3.13;;
51566;SDS011;37657;53.182;5.638;2022-07-24T10:52:06;4.20;;;2.50;;
51566;SDS011;37657;53.182;5.638;2022-07-24T10:54:33;5.13;;;3.00;;
51566;SDS011;37657;53.182;5.638;2022-07-24T10:56:58;5.43;;;2.65;;
51566;SDS011;37657;53.182;5.638;2022-07-24T10:59:34;5.85;;;1.90;;
51566;SDS011;37657;53.182;5.638;2022-07-24T11:10:48;6.03;;;2.65;;
51566;SDS011;37657;53.182;5.638;2022-07-24T11:18:37;5.18;;;3.05;;
51566;SDS011;37657;53.182;5.638;2022-07-24T11:21:02;3.95;;;2.95;;
51566;SDS011;37657;53.182;5.638;2022-07-24T11:23:28;3.10;;;1.95;;
51566;SDS011;37657;53.182;5.638;2022-07-24T11:29:12;4.43;;;2.40;;
51566;SDS011;37657;53.182;5.638;2022-07-24T11:31:37;3.20;;;2.33;;
51566;SDS011;37657;53.182;5.638;2022-07-24T11:34:04;6.82;;;2.25;;
51566;SDS011;37657;53.182;5.638;2022-07-24T11:36:29;2.92;;;2.10;;
51566;SDS011;37657;53.182;5.638;2022-07-24T11:38:56;12.48;;;3.13;;
51566;SDS011;37657;53.182;5.638;2022-07-24T11:41:21;4.75;;;3.08;;
51566;SDS011;37657;53.182;5.638;2022-07-24T11:43:51;2.95;;;2.38;;
51566;SDS011;37657;53.182;5.638;2022-07-24T11:46:35;4.55;;;2.60;;
51566;SDS011;37657;53.182;5.638;2022-07-24T11:49:04;4.15;;;2.13;;
51566;SDS011;37657;53.182;5.638;2022-07-24T11:51:30;2.83;;;1.73;;
51566;SDS011;37657;53.182;5.638;2022-07-24T11:53:57;3.40;;;2.45;;
51566;SDS011;37657;53.182;5.638;2022-07-24T11:56:22;3.72;;;2.65;;
51566;SDS011;37657;53.182;5.638;2022-07-24T11:58:48;2.00;;;1.70;;
51566;SDS011;37657;53.182;5.638;2022-07-24T12:01:20;4.28;;;2.22;;
51566;SDS011;37657;53.182;5.638;2022-07-24T12:03:49;3.67;;;1.92;;
51566;SDS011;37657;53.182;5.638;2022-07-24T12:06:15;5.72;;;2.78;;
51566;SDS011;37657;53.182;5.638;2022-07-24T12:08:41;3.65;;;2.17;;
51566;SDS011;37657;53.182;5.638;2022-07-24T12:11:06;5.80;;;2.00;;
51566;SDS011;37657;53.182;5.638;2022-07-24T12:13:32;5.20;;;2.10;;
51566;SDS011;37657;53.182;5.638;2022-07-24T12:15:58;3.17;;;2.22;;
51566;SDS011;37657;53.182;5.638;2022-07-24T12:18:23;4.07;;;1.80;;
51566;SDS011;37657;53.182;5.638;2022-07-24T12:20:49;5.55;;;2.65;;
51566;SDS011;37657;53.182;5.638;2022-07-24T12:23:15;4.05;;;2.53;;
51566;SDS011;37657;53.182;5.638;2022-07-24T12:25:43;3.15;;;2.67;;
51566;SDS011;37657;53.182;5.638;2022-07-24T12:28:13;3.67;;;2.17;;
51566;SDS011;37657;53.182;5.638;2022-07-24T12:30:42;6.03;;;2.40;;
51566;SDS011;37657;53.182;5.638;2022-07-24T12:33:19;3.10;;;2.05;;
51566;SDS011;37657;53.182;5.638;2022-07-24T12:36:05;4.47;;;1.88;;
51566;SDS011;37657;53.182;5.638;2022-07-24T12:41:14;3.08;;;2.10;;
51566;SDS011;37657;53.182;5.638;2022-07-24T12:43:46;4.00;;;2.53;;
51566;SDS011;37657;53.182;5.638;2022-07-24T12:46:20;5.80;;;1.80;;
51566;SDS011;37657;53.182;5.638;2022-07-24T12:51:23;6.10;;;2.53;;
51566;SDS011;37657;53.182;5.638;2022-07-24T12:53:52;4.50;;;2.38;;
51566;SDS011;37657;53.182;5.638;2022-07-24T12:56:19;3.90;;;1.90;;
51566;SDS011;37657;53.182;5.638;2022-07-24T12:58:52;4.82;;;1.77;;
51566;SDS011;37657;53.182;5.638;2022-07-24T13:01:23;3.67;;;2.55;;
51566;SDS011;37657;53.182;5.638;2022-07-24T13:03:58;3.03;;;2.15;;
51566;SDS011;37657;53.182;5.638;2022-07-24T13:06:36;3.88;;;1.92;;
51566;SDS011;37657;53.182;5.638;2022-07-24T13:09:04;2.80;;;2.05;;
51566;SDS011;37657;53.182;5.638;2022-07-24T13:11:31;19.48;;;4.00;;
51566;SDS011;37657;53.182;5.638;2022-07-24T13:13:57;2.53;;;1.35;;
51566;SDS011;37657;53.182;5.638;2022-07-24T13:16:25;3.13;;;2.00;;
51566;SDS011;37657;53.182;5.638;2022-07-24T13:18:52;7.03;;;3.17;;
51566;SDS011;37657;53.182;5.638;2022-07-24T13:21:18;4.68;;;2.50;;
51566;SDS011;37657;53.182;5.638;2022-07-24T13:23:44;4.95;;;2.25;;
51566;SDS011;37657;53.182;5.638;2022-07-24T13:26:10;2.35;;;1.90;;
51566;SDS011;37657;53.182;5.638;2022-07-24T13:28:36;6.03;;;2.20;;
51566;SDS011;37657;53.182;5.638;2022-07-24T13:31:01;2.83;;;1.83;;
51566;SDS011;37657;53.182;5.638;2022-07-24T13:33:27;3.42;;;1.90;;
51566;SDS011;37657;53.182;5.638;2022-07-24T13:35:53;3.42;;;1.90;;
51566;SDS011;37657;53.182;5.638;2022-07-24T13:38:18;3.38;;;2.13;;
51566;SDS011;37657;53.182;5.638;2022-07-24T13:40:44;2.95;;;1.67;;
51566;SDS011;37657;53.182;5.638;2022-07-24T13:43:09;3.70;;;2.20;;
51566;SDS011;37657;53.182;5.638;2022-07-24T13:45:35;4.53;;;3.13;;
51566;SDS011;37657;53.182;5.638;2022-07-24T13:48:00;4.47;;;2.63;;
51566;SDS011;37657;53.182;5.638;2022-07-24T13:50:26;2.70;;;1.70;;
51566;SDS011;37657;53.182;5.638;2022-07-24T13:52:53;2.22;;;1.85;;
51566;SDS011;37657;53.182;5.638;2022-07-24T13:55:19;4.35;;;2.80;;
51566;SDS011;37657;53.182;5.638;2022-07-24T13:57:44;4.50;;;3.00;;
51566;SDS011;37657;53.182;5.638;2022-07-24T14:00:10;3.67;;;2.13;;
51566;SDS011;37657;53.182;5.638;2022-07-24T14:02:37;3.72;;;2.63;;
51566;SDS011;37657;53.182;5.638;2022-07-24T14:05:02;5.60;;;2.80;;
51566;SDS011;37657;53.182;5.638;2022-07-24T14:07:28;5.38;;;2.88;;
51566;SDS011;37657;53.182;5.638;2022-07-24T14:09:53;4.55;;;2.67;;
51566;SDS011;37657;53.182;5.638;2022-07-24T14:12:20;8.00;;;3.35;;
51566;SDS011;37657;53.182;5.638;2022-07-24T14:14:46;4.00;;;2.30;;
51566;SDS011;37657;53.182;5.638;2022-07-24T14:17:11;4.53;;;2.65;;
51566;SDS011;37657;53.182;5.638;2022-07-24T14:19:37;3.83;;;2.40;;
51566;SDS011;37657;53.182;5.638;2022-07-24T14:22:03;3.45;;;1.92;;
51566;SDS011;37657;53.182;5.638;2022-07-24T14:24:29;4.72;;;2.63;;
51566;SDS011;37657;53.182;5.638;2022-07-24T14:26:55;3.42;;;1.88;;
51566;SDS011;37657;53.182;5.638;2022-07-24T14:29:20;5.35;;;3.67;;
51566;SDS011;37657;53.182;5.638;2022-07-24T14:31:46;4.88;;;2.75;;
51566;SDS011;37657;53.182;5.638;2022-07-24T14:34:12;5.22;;;2.83;;
51566;SDS011;37657;53.182;5.638;2022-07-24T14:36:38;5.65;;;2.88;;
51566;SDS011;37657;53.182;5.638;2022-07-24T14:39:03;3.58;;;2.45;;
51566;SDS011;37657;53.182;5.638;2022-07-24T14:41:29;4.82;;;2.92;;
51566;SDS011;37657;53.182;5.638;2022-07-24T14:43:55;2.45;;;1.83;;
51566;SDS011;37657;53.182;5.638;2022-07-24T14:46:21;6.07;;;2.38;;
51566;SDS011;37657;53.182;5.638;2022-07-24T14:48:46;3.53;;;2.78;;
51566;SDS011;37657;53.182;5.638;2022-07-24T14:51:12;3.20;;;2.10;;
51566;SDS011;37657;53.182;5.638;2022-07-24T14:53:37;3.72;;;2.60;;
51566;SDS011;37657;53.182;5.638;2022-07-24T14:56:03;3.63;;;2.58;;
51566;SDS011;37657;53.182;5.638;2022-07-24T14:58:29;5.03;;;2.80;;
51566;SDS011;37657;53.182;5.638;2022-07-24T15:00:54;6.07;;;2.33;;
51566;SDS011;37657;53.182;5.638;2022-07-24T15:03:20;5.70;;;3.78;;
51566;SDS011;37657;53.182;5.638;2022-07-24T15:05:45;3.40;;;2.60;;
51566;SDS011;37657;53.182;5.638;2022-07-24T15:08:12;6.40;;;2.72;;
51566;SDS011;37657;53.182;5.638;2022-07-24T15:10:38;5.28;;;3.25;;
51566;SDS011;37657;53.182;5.638;2022-07-24T15:13:03;4.18;;;2.45;;
51566;SDS011;37657;53.182;5.638;2022-07-24T15:15:29;3.47;;;2.53;;
51566;SDS011;37657;53.182;5.638;2022-07-24T15:17:55;6.40;;;2.53;;
51566;SDS011;37657;53.182;5.638;2022-07-24T15:20:21;5.80;;;2.22;;
51566;SDS011;37657;53.182;5.638;2022-07-24T15:22:46;3.72;;;2.13;;
51566;SDS011;37657;53.182;5.638;2022-07-24T15:25:12;7.55;;;2.25;;